createdAt,value
2019-06-15T00:00:41.245Z,100104.70
2019-06-15T00:03:27.849Z,100090.06
2019-06-15T00:06:15.681Z,100076.81
2019-06-15T00:09:02.449Z,100075.69
2019-06-15T00:11:50.345Z,100074.40
2019-06-15T00:14:37.571Z,100074.61
2019-06-15T00:17:25.300Z,100065.73
2019-06-15T00:20:12.291Z,100049.73
2019-06-15T00:22:59.545Z,100045.08
2019-06-15T00:25:46.997Z,100039.17
2019-06-15T00:28:33.886Z,100028.55
2019-06-15T00:31:20.808Z,100029.77
2019-06-15T00:34:22.029Z,100024.55
2019-06-15T00:37:09.960Z,100006.28
2019-06-15T00:40:00.264Z,100008.77
2019-06-15T00:42:48.914Z,99998.66
2019-06-15T00:45:35.513Z,99990.88
2019-06-15T00:48:22.744Z,99964.70
2019-06-15T00:51:10.763Z,99948.81
2019-06-15T00:54:01.054Z,99941.88
2019-06-15T00:59:57.251Z,99939.52
2019-06-15T01:02:44.851Z,99941.10
2019-06-15T01:05:32.149Z,99943.25
2019-06-15T01:08:19.478Z,99939.39
2019-06-15T01:11:07.593Z,99933.31
2019-06-15T01:13:57.779Z,99924.64
2019-06-15T01:16:44.389Z,99928.23
2019-06-15T01:19:31.221Z,99931.06
2019-06-15T01:22:18.361Z,99934.83
2019-06-15T01:25:15.672Z,99928.28
2019-06-15T01:28:09.689Z,99919.89
2019-06-15T01:30:56.689Z,99908.67
2019-06-15T01:33:44.409Z,99915.38
2019-06-15T01:39:50.779Z,99906.16
2019-06-15T01:42:38.595Z,99893.09
2019-06-15T01:48:31.386Z,99873.88
2019-06-15T01:51:25.968Z,99867.39
2019-06-15T01:54:12.689Z,99870.66
2019-06-15T01:56:59.488Z,99870.77
2019-06-15T01:59:46.701Z,99876.49
2019-06-15T02:02:34.139Z,99873.20
2019-06-15T02:05:21.776Z,99880.55
2019-06-15T02:08:09.262Z,99888.89
2019-06-15T02:10:56.506Z,99883.76
2019-06-15T02:13:44.063Z,99880.55
2019-06-15T02:16:31.597Z,99884.50
2019-06-15T02:19:18.776Z,99879.94
2019-06-15T02:22:05.726Z,99867.78
2019-06-15T02:24:53.419Z,99857.59
2019-06-15T02:27:40.126Z,99846.78
2019-06-15T02:30:27.340Z,99834.55
2019-06-15T02:33:14.675Z,99840.33
2019-06-15T02:36:02.329Z,99844.06
2019-06-15T02:38:50.229Z,99840.15
2019-06-15T02:41:37.542Z,99839.27
2019-06-15T02:44:24.582Z,99831.59
2019-06-15T02:47:12.208Z,99823.81
2019-06-15T02:53:05.495Z,99820.47
2019-06-15T02:55:52.103Z,99830.19
2019-06-15T02:58:39.501Z,99833.16
2019-06-15T03:01:26.743Z,99826.94
2019-06-15T03:04:13.645Z,99818.42
2019-06-15T03:07:00.462Z,99812.23
2019-06-15T03:09:47.475Z,99806.41
2019-06-15T03:12:34.415Z,99802.13
2019-06-15T03:15:21.220Z,99803.80
2019-06-15T03:18:08.369Z,99792.33
2019-06-15T03:20:56.353Z,99804.09
2019-06-15T03:23:43.146Z,99804.48
2019-06-15T03:26:30.899Z,99810.92
2019-06-15T03:29:17.718Z,99806.19
2019-06-15T03:32:05.070Z,99804.38
2019-06-15T03:35:00.311Z,99795.97
2019-06-15T03:37:50.752Z,99798.17
2019-06-15T03:40:38.286Z,99800.77
2019-06-15T03:43:31.745Z,99797.00
2019-06-15T03:46:19.035Z,99791.23
2019-06-15T03:49:06.068Z,99803.23
2019-06-15T03:51:54.936Z,99808.00
2019-06-15T03:54:42.096Z,99804.45
2019-06-15T03:57:30.896Z,99809.95
2019-06-15T04:00:30.402Z,99806.93
2019-06-15T04:03:17.729Z,99807.95
2019-06-15T04:06:07.630Z,99798.62
2019-06-15T04:08:55.324Z,99803.01
2019-06-15T04:11:43.355Z,99795.41
2019-06-15T04:14:30.827Z,99787.63
2019-06-15T04:17:18.517Z,99788.14
2019-06-15T04:20:06.980Z,99788.52
2019-06-15T04:22:54.463Z,99788.88
2019-06-15T04:25:44.244Z,99787.79
2019-06-15T04:28:32.407Z,99798.06
2019-06-15T04:31:19.132Z,99805.73
2019-06-15T04:34:05.836Z,99803.22
2019-06-15T04:36:52.739Z,99810.98
2019-06-15T04:39:41.645Z,99812.23
2019-06-15T04:42:35.601Z,99814.45
2019-06-15T04:45:24.337Z,99819.30
2019-06-15T04:48:11.780Z,99820.38
2019-06-15T04:51:00.247Z,99800.50
2019-06-15T04:53:46.938Z,99798.41
2019-06-15T04:56:33.558Z,99800.95
2019-06-15T04:59:23.427Z,99799.78
2019-06-15T05:02:27.330Z,99792.00
2019-06-15T05:05:11.908Z,99794.63
2019-06-15T05:07:59.575Z,99786.16
2019-06-15T05:10:46.740Z,99775.83
2019-06-15T05:13:40.946Z,99773.44
2019-06-15T05:16:28.344Z,99772.44
2019-06-15T05:19:15.290Z,99781.30
2019-06-15T05:22:02.539Z,99782.30
2019-06-15T05:24:50.022Z,99785.11
2019-06-15T05:27:36.564Z,99786.53
2019-06-15T05:30:27.421Z,99786.63
2019-06-15T05:33:28.675Z,99783.19
2019-06-15T05:36:15.989Z,99783.41
2019-06-15T05:39:03.095Z,99784.08
2019-06-15T05:41:51.526Z,99781.19
2019-06-15T05:44:46.009Z,99787.70
2019-06-15T05:47:32.951Z,99794.77
2019-06-15T05:50:20.469Z,99788.11
2019-06-15T05:53:07.384Z,99780.61
2019-06-15T05:55:54.294Z,99783.88
2019-06-15T05:58:42.135Z,99777.92
2019-06-15T06:01:35.806Z,99784.52
2019-06-15T06:04:22.954Z,99786.02
2019-06-15T06:07:12.012Z,99783.00
2019-06-15T06:10:00.053Z,99776.21
2019-06-15T06:12:47.553Z,99779.03
2019-06-15T06:15:34.372Z,99780.37
2019-06-15T06:18:21.463Z,99774.77
2019-06-15T06:21:09.096Z,99777.63
2019-06-15T06:23:56.119Z,99776.81
2019-06-15T06:26:43.242Z,99792.47
2019-06-15T06:29:30.778Z,99795.64
2019-06-15T06:32:18.118Z,99799.25
2019-06-15T06:35:04.812Z,99799.39
2019-06-15T06:37:55.154Z,99798.32
2019-06-15T06:40:42.127Z,99803.02
2019-06-15T06:46:34.872Z,99815.64
2019-06-15T06:49:36.241Z,99824.18
2019-06-15T06:52:30.246Z,99815.93
2019-06-15T06:55:17.204Z,99824.41
2019-06-15T06:58:04.101Z,99821.02
2019-06-15T07:04:11.513Z,99814.08
2019-06-15T07:06:58.359Z,99815.08
2019-06-15T07:09:45.244Z,99812.06
2019-06-15T07:12:48.154Z,99807.41
2019-06-15T07:15:34.958Z,99816.20
2019-06-15T07:18:22.524Z,99819.94
2019-06-15T07:21:10.298Z,99819.34
2019-06-15T07:24:13.061Z,99814.59
2019-06-15T07:26:59.088Z,99815.25
2019-06-15T07:29:46.091Z,99808.52
2019-06-15T07:32:40.015Z,99803.15
2019-06-15T07:35:27.583Z,99801.27
2019-06-15T07:41:36.113Z,99800.11
2019-06-15T07:44:22.810Z,99799.77
2019-06-15T07:56:28.066Z,99802.16
2019-06-15T07:59:15.518Z,99807.74
2019-06-15T08:02:02.090Z,99803.24
2019-06-15T08:08:13.294Z,99815.06
2019-06-15T08:14:06.408Z,99825.92
2019-06-15T08:16:54.285Z,99827.51
2019-06-15T08:22:48.353Z,99821.33
2019-06-15T08:31:48.185Z,99826.91
2019-06-15T08:34:42.167Z,99827.15
2019-06-15T08:37:29.289Z,99825.22
2019-06-15T08:40:16.030Z,99821.69
2019-06-15T08:49:19.959Z,99827.31
2019-06-15T08:52:07.507Z,99830.95
2019-06-15T08:54:54.788Z,99830.34
2019-06-15T08:57:41.836Z,99826.06
2019-06-15T09:00:28.933Z,99818.36
2019-06-15T09:03:16.275Z,99813.14
2019-06-15T09:06:03.668Z,99808.71
2019-06-15T09:11:57.261Z,99820.41
2019-06-15T09:17:50.595Z,99836.95
2019-06-15T09:20:37.205Z,99823.33
2019-06-15T09:23:24.043Z,99829.89
2019-06-15T09:26:14.592Z,99840.51
2019-06-15T09:29:11.579Z,99838.03
2019-06-15T09:31:55.343Z,99852.59
2019-06-15T09:34:45.929Z,99856.59
2019-06-15T09:37:36.728Z,99857.88
2019-06-15T09:40:25.389Z,99866.02
2019-06-15T09:43:12.289Z,99868.94
2019-06-15T09:46:06.584Z,99875.55
2019-06-15T09:49:00.806Z,99874.62
2019-06-15T09:51:48.741Z,99877.05
2019-06-15T09:54:37.723Z,99878.34
2019-06-15T09:57:27.932Z,99880.53
2019-06-15T10:00:14.868Z,99873.09
2019-06-15T10:06:11.744Z,99877.17
2019-06-15T10:08:57.056Z,99879.02
2019-06-15T10:11:56.512Z,99881.67
2019-06-15T10:20:55.317Z,99903.80
2019-06-15T10:26:52.554Z,99899.69
2019-06-15T10:29:42.839Z,99902.92
2019-06-15T10:38:44.090Z,99912.22
2019-06-15T10:41:31.862Z,99915.97
2019-06-15T10:44:19.003Z,99926.23
2019-06-15T10:47:06.257Z,99920.50
2019-06-15T10:52:59.522Z,99922.56
2019-06-15T11:01:57.775Z,99936.52
2019-06-15T11:04:45.272Z,99945.25
2019-06-15T11:11:00.360Z,99950.80
2019-06-15T11:13:46.926Z,99961.75
2019-06-15T11:16:33.709Z,99959.95
2019-06-15T11:19:23.839Z,99968.69
2019-06-15T11:22:11.221Z,99972.52
2019-06-15T11:24:58.298Z,99973.97
2019-06-15T11:30:52.685Z,99991.00
2019-06-15T11:33:54.330Z,99994.61
2019-06-15T11:36:41.037Z,100003.67
2019-06-15T11:42:35.343Z,99995.77
2019-06-15T11:48:28.231Z,100003.31
2019-06-15T11:51:19.005Z,100006.45
2019-06-15T11:54:05.977Z,100002.90
2019-06-15T11:56:53.451Z,100007.36
2019-06-15T11:59:40.286Z,100018.17
2019-06-15T12:02:28.205Z,100019.98
2019-06-15T12:05:15.430Z,100021.38
2019-06-15T12:08:02.414Z,100026.33
2019-06-15T12:10:49.963Z,100015.00
2019-06-15T12:13:36.504Z,100025.05
2019-06-15T12:19:29.081Z,100026.08
2019-06-15T12:22:16.761Z,100037.33
2019-06-15T12:25:03.669Z,100033.03
2019-06-15T12:27:51.303Z,100049.38
2019-06-15T12:30:46.502Z,100036.05
2019-06-15T12:33:33.221Z,100039.00
2019-06-15T12:36:21.973Z,100047.98
2019-06-15T12:39:09.309Z,100041.05
2019-06-15T12:41:56.100Z,100059.20
2019-06-15T12:44:42.819Z,100067.77
2019-06-15T12:47:30.427Z,100059.31
2019-06-15T12:50:18.022Z,100066.88
2019-06-15T12:53:06.016Z,100064.79
2019-06-15T12:55:53.225Z,100078.45
2019-06-15T12:58:40.363Z,100079.27
2019-06-15T13:01:28.066Z,100084.52
2019-06-15T13:04:16.320Z,100079.58
2019-06-15T13:10:12.756Z,100095.08
2019-06-15T13:13:03.212Z,100091.88
2019-06-15T13:18:56.222Z,100102.74
2019-06-15T13:21:43.320Z,100100.97
2019-06-15T13:24:30.389Z,100103.81
2019-06-15T13:27:17.708Z,100105.92
2019-06-15T13:33:17.903Z,100106.98
2019-06-15T13:36:05.804Z,100105.78
2019-06-15T13:38:53.508Z,100122.84
2019-06-15T13:44:46.598Z,100115.58
2019-06-15T13:50:39.811Z,100113.55
2019-06-15T13:53:27.485Z,100108.03
2019-06-15T13:56:15.034Z,100117.86
2019-06-15T13:59:02.308Z,100111.89
2019-06-15T14:01:49.921Z,100117.48
2019-06-15T14:04:36.760Z,100123.86
2019-06-15T14:07:23.456Z,100120.20
2019-06-15T14:10:17.287Z,100120.89
2019-06-15T14:13:04.626Z,100124.62
2019-06-15T14:15:51.563Z,100124.04
2019-06-15T14:18:38.868Z,100133.27
2019-06-15T14:21:25.580Z,100118.89
2019-06-15T14:24:12.106Z,100126.58
2019-06-15T14:26:58.765Z,100121.51
2019-06-15T14:30:00.209Z,100121.77
2019-06-15T14:32:47.051Z,100121.73
2019-06-15T14:38:39.445Z,100130.62
2019-06-15T14:41:26.328Z,100125.32
2019-06-15T14:44:14.072Z,100125.95
2019-06-15T14:47:04.435Z,100130.27
2019-06-15T14:49:54.029Z,100131.70
2019-06-15T14:52:40.925Z,100125.31
2019-06-15T14:55:28.655Z,100139.23
2019-06-15T14:58:17.145Z,100140.05
2019-06-15T15:01:02.620Z,100139.57
2019-06-15T15:03:50.135Z,100145.73
2019-06-15T15:06:47.044Z,100145.87
2019-06-15T15:12:36.990Z,100154.98
2019-06-15T15:15:23.665Z,100155.66
2019-06-15T15:18:10.682Z,100138.72
2019-06-15T15:21:06.848Z,100149.52
2019-06-15T15:23:51.903Z,100141.73
2019-06-15T15:29:46.396Z,100145.83
2019-06-15T15:32:32.910Z,100148.53
2019-06-15T15:35:20.129Z,100149.95
2019-06-15T15:38:07.360Z,100144.22
2019-06-15T15:40:56.131Z,100134.80
2019-06-15T15:43:41.072Z,100136.77
2019-06-15T15:46:28.278Z,100138.55
2019-06-15T15:52:26.908Z,100131.22
2019-06-15T15:55:11.220Z,100127.56
2019-06-15T15:58:06.793Z,100133.71
2019-06-15T16:01:06.770Z,100119.91
2019-06-15T16:04:01.109Z,100134.47
2019-06-15T16:09:54.625Z,100126.40
2019-06-15T16:12:48.732Z,100130.42
2019-06-15T16:15:37.220Z,100131.67
2019-06-15T16:18:24.298Z,100126.39
2019-06-15T16:24:17.641Z,100124.70
2019-06-15T16:27:26.356Z,100128.46
2019-06-15T16:30:08.670Z,100135.63
2019-06-15T16:33:04.235Z,100136.95
2019-06-15T16:35:50.484Z,100135.09
2019-06-15T16:38:38.508Z,100135.52
2019-06-15T16:41:25.905Z,100144.30
2019-06-15T16:44:12.543Z,100137.88
2019-06-15T16:46:59.762Z,100149.13
2019-06-15T16:49:47.294Z,100149.08
2019-06-15T16:52:36.389Z,100151.45
2019-06-15T16:55:22.334Z,100152.47
2019-06-15T16:58:12.914Z,100155.23
2019-06-15T17:00:59.514Z,100160.06
2019-06-15T17:03:47.204Z,100157.81
2019-06-15T17:06:33.665Z,100160.59
2019-06-15T17:09:20.311Z,100168.03
2019-06-15T17:12:07.303Z,100167.91
2019-06-15T17:14:54.511Z,100179.14
2019-06-15T17:17:41.746Z,100172.94
2019-06-15T17:20:29.088Z,100183.25
2019-06-15T17:23:16.500Z,100193.94
2019-06-15T17:26:03.081Z,100196.42
2019-06-15T17:28:50.734Z,100203.95
2019-06-15T17:31:37.837Z,100199.15
2019-06-15T17:34:26.180Z,100209.75
2019-06-15T17:37:11.669Z,100214.34
2019-06-15T17:39:58.735Z,100218.65
2019-06-15T17:42:46.212Z,100219.03
2019-06-15T17:45:34.070Z,100228.83
2019-06-15T17:48:20.983Z,100235.91
2019-06-15T17:51:11.471Z,100235.10
2019-06-15T17:53:58.601Z,100234.98
2019-06-15T17:56:46.209Z,100243.11
2019-06-15T17:59:36.299Z,100249.72
2019-06-15T18:02:21.261Z,100251.16
2019-06-15T18:05:08.381Z,100247.91
2019-06-15T18:08:00.840Z,100258.23
2019-06-15T18:10:43.021Z,100267.57
2019-06-15T18:13:30.070Z,100266.09
2019-06-15T18:16:17.444Z,100268.77
2019-06-15T18:19:06.807Z,100279.14
2019-06-15T18:21:52.013Z,100275.05
2019-06-15T18:24:39.737Z,100275.84
2019-06-15T18:27:27.248Z,100279.45
2019-06-15T18:30:13.721Z,100280.42
2019-06-15T18:33:01.473Z,100279.79
2019-06-15T18:35:48.100Z,100288.21
2019-06-15T18:38:49.320Z,100289.30
2019-06-15T18:44:42.665Z,100304.83
2019-06-15T18:47:29.415Z,100319.61
2019-06-15T18:50:17.159Z,100331.94
2019-06-15T18:53:06.921Z,100318.77
2019-06-15T18:55:51.920Z,100317.86
2019-06-15T18:58:39.101Z,100330.34
2019-06-15T19:01:27.073Z,100337.61
2019-06-15T19:04:26.833Z,100344.09
2019-06-15T19:07:01.396Z,100343.65
2019-06-15T19:09:48.011Z,100356.34
2019-06-15T19:12:35.895Z,100354.59
2019-06-15T19:15:22.854Z,100355.44
2019-06-15T19:18:10.523Z,100362.47
2019-06-15T19:21:11.255Z,100365.17
2019-06-15T19:23:58.544Z,100382.90
2019-06-15T19:26:46.060Z,100386.45
2019-06-15T19:29:33.026Z,100393.09
2019-06-15T19:32:19.834Z,100397.56
2019-06-15T19:35:07.891Z,100414.96
2019-06-15T19:37:56.705Z,100419.51
2019-06-15T19:40:43.195Z,100413.97
2019-06-15T19:46:36.646Z,100409.98
2019-06-15T19:49:25.758Z,100405.91
2019-06-15T19:52:10.605Z,100415.20
2019-06-15T19:54:57.737Z,100408.25
2019-06-15T19:57:46.576Z,100411.88
2019-06-15T20:00:38.569Z,100411.66
2019-06-15T20:03:27.334Z,100421.48
2019-06-15T20:06:12.670Z,100414.22
2019-06-15T20:08:59.965Z,100415.47
2019-06-15T20:11:47.181Z,100418.56
2019-06-15T20:14:36.569Z,100412.16
2019-06-15T20:17:27.804Z,100420.50
2019-06-15T20:23:20.975Z,100425.66
2019-06-15T20:26:07.678Z,100432.72
2019-06-15T20:28:56.429Z,100440.63
2019-06-15T20:31:42.000Z,100443.52
2019-06-15T20:34:28.568Z,100458.89
2019-06-15T20:37:16.926Z,100464.33
2019-06-15T20:40:03.342Z,100464.14
2019-06-15T20:42:50.253Z,100474.20
2019-06-15T20:45:37.274Z,100482.34
2019-06-15T20:48:31.387Z,100484.05
2019-06-15T20:51:27.073Z,100497.02
2019-06-15T20:54:17.936Z,100489.06
2019-06-15T20:57:06.447Z,100493.88
2019-06-15T20:59:51.973Z,100501.05
2019-06-15T21:02:40.651Z,100507.85
2019-06-15T21:05:37.249Z,100516.13
2019-06-15T21:08:16.000Z,100524.43
2019-06-15T21:11:01.507Z,100530.33
2019-06-15T21:13:48.488Z,100539.80
2019-06-15T21:16:37.044Z,100545.36
2019-06-15T21:19:22.238Z,100551.50
2019-06-15T21:25:17.366Z,100547.79
2019-06-15T21:28:02.432Z,100543.72
2019-06-15T21:30:49.461Z,100549.57
2019-06-15T21:33:36.956Z,100564.16
2019-06-15T21:36:25.912Z,100565.55
2019-06-15T21:42:16.756Z,100573.22
2019-06-15T21:45:03.646Z,100572.22
2019-06-15T21:51:03.468Z,100573.41
2019-06-15T21:53:50.453Z,100584.61
2019-06-15T21:56:38.209Z,100585.76
2019-06-15T21:59:26.106Z,100589.02
2019-06-15T22:02:12.651Z,100587.79
2019-06-15T22:04:59.475Z,100589.21
2019-06-15T22:07:47.648Z,100589.73
2019-06-15T22:10:35.951Z,100594.14
2019-06-15T22:13:20.542Z,100593.05
2019-06-15T22:16:07.647Z,100596.88
2019-06-15T22:18:54.969Z,100593.80
2019-06-15T22:21:43.916Z,100599.32
2019-06-15T22:24:30.632Z,100598.50
2019-06-15T22:27:17.590Z,100604.59
2019-06-15T22:30:07.938Z,100604.49
2019-06-15T22:32:56.231Z,100607.59
2019-06-15T22:35:42.460Z,100611.99
2019-06-15T22:38:29.379Z,100607.98
2019-06-15T22:41:17.883Z,100607.75
2019-06-15T22:47:12.436Z,100604.06
2019-06-15T22:53:09.236Z,100604.52
2019-06-15T22:55:58.259Z,100616.19
2019-06-15T23:04:56.735Z,100612.19
2019-06-15T23:07:47.308Z,100612.91
2019-06-15T23:10:36.669Z,100622.52
2019-06-15T23:13:21.430Z,100629.59
2019-06-15T23:16:08.813Z,100632.26
2019-06-15T23:18:57.241Z,100635.06
2019-06-15T23:25:05.905Z,100642.20
2019-06-15T23:30:57.581Z,100642.99
2019-06-15T23:33:46.735Z,100640.70
2019-06-15T23:36:52.480Z,100645.25
2019-06-15T23:39:22.841Z,100646.03
2019-06-15T23:45:18.681Z,100668.09
2019-06-15T23:48:08.346Z,100686.91
2019-06-15T23:50:56.903Z,100684.92
2019-06-15T23:53:42.903Z,100684.33
2019-06-15T23:56:30.037Z,100679.44
2019-06-15T23:59:18.879Z,100689.48
